Time;durP1;ratioP1;P1;durP2;ratioP2;P2;SDS_P1;SDS_P2;PMS_P1;PMS_P2;Temp;Humidity;BMP_temperature;BMP_pressure;BME280_temperature;BME280_humidity;BME280_pressure;Samples;Min_cycle;Max_cycle;Signal;HPM_P1;HPM_P2
2023/07/25 00:01:55;;;;;;;2.90;2.70;;;17.20;99.90;;;;;;4990423;28;20540;-64
2023/07/25 00:04:22;;;;;;;2.10;1.90;;;17.20;99.90;;;;;;4989984;28;20481;-64
2023/07/25 00:06:49;;;;;;;1.93;1.83;;;17.20;99.90;;;;;;4988979;28;20546;-64
2023/07/25 00:09:16;;;;;;;2.37;2.17;;;17.20;99.90;;;;;;4990436;28;20493;-65
2023/07/25 00:11:42;;;;;;;3.07;2.33;;;17.30;99.90;;;;;;4988746;28;20544;-64
2023/07/25 00:14:09;;;;;;;2.83;2.60;;;17.30;99.90;;;;;;4990286;28;20505;-64
2023/07/25 00:16:36;;;;;;;2.20;1.90;;;17.30;99.90;;;;;;4989853;28;20492;-64
2023/07/25 00:19:05;;;;;;;1.90;1.80;;;17.30;99.90;;;;;;4990440;28;20862;-65
2023/07/25 00:21:31;;;;;;;2.10;2.00;;;17.30;99.90;;;;;;4990425;28;20616;-65
2023/07/25 00:23:58;;;;;;;2.87;2.57;;;17.30;99.90;;;;;;4990250;28;20563;-64
2023/07/25 00:26:25;;;;;;;2.03;1.93;;;17.40;99.90;;;;;;4989341;28;20540;-65
2023/07/25 00:28:52;;;;;;;2.57;2.20;;;17.40;99.90;;;;;;4989989;28;20959;-64
2023/07/25 00:31:19;;;;;;;5.07;2.70;;;17.40;99.90;;;;;;4989929;28;20458;-64
2023/07/25 00:33:46;;;;;;;2.13;2.00;;;17.40;99.90;;;;;;4989873;28;20512;-64
2023/07/25 00:36:14;;;;;;;2.23;2.13;;;17.40;99.90;;;;;;4989256;28;20537;-64
2023/07/25 00:38:41;;;;;;;2.80;2.60;;;17.40;99.90;;;;;;4989993;28;20494;-64
2023/07/25 00:41:08;;;;;;;2.60;2.30;;;17.40;99.90;;;;;;4989949;28;20543;-64
2023/07/25 00:43:35;;;;;;;2.37;2.23;;;17.40;99.90;;;;;;4990067;28;20511;-64
2023/07/25 00:46:02;;;;;;;4.80;2.50;;;17.40;99.90;;;;;;4989213;28;20462;-64
2023/07/25 00:48:30;;;;;;;2.47;2.00;;;17.50;99.90;;;;;;4990044;28;20492;-64
2023/07/25 00:50:57;;;;;;;2.13;1.97;;;17.50;99.90;;;;;;4989860;28;20453;-64
2023/07/25 00:53:27;;;;;;;2.07;1.97;;;17.50;99.90;;;;;;4989694;28;20509;-65
2023/07/25 00:55:54;;;;;;;2.20;2.00;;;17.50;99.90;;;;;;4988936;28;20532;-64
2023/07/25 00:58:21;;;;;;;2.93;2.73;;;17.60;99.90;;;;;;4989226;28;20490;-64
2023/07/25 01:00:49;;;;;;;2.27;2.13;;;17.50;99.90;;;;;;4989510;28;20464;-65
2023/07/25 01:03:16;;;;;;;2.97;2.10;;;17.50;99.90;;;;;;4989667;28;20484;-65
2023/07/25 01:05:45;;;;;;;2.03;1.93;;;17.50;99.90;;;;;;4989256;28;20548;-64
2023/07/25 01:08:12;;;;;;;2.33;2.13;;;17.50;99.90;;;;;;4988674;28;20504;-65
2023/07/25 01:10:40;;;;;;;2.43;2.23;;;17.50;99.90;;;;;;4987826;28;20465;-63
2023/07/25 01:13:07;;;;;;;2.27;1.87;;;17.40;99.90;;;;;;4989623;28;20874;-65
2023/07/25 01:15:35;;;;;;;2.37;2.17;;;17.40;99.90;;;;;;4989650;28;21057;-65
2023/07/25 01:18:02;;;;;;;1.97;1.87;;;17.30;99.90;;;;;;4988550;28;20513;-65
2023/07/25 01:20:29;;;;;;;1.90;1.80;;;17.30;99.90;;;;;;4988993;28;20521;-65
2023/07/25 01:22:57;;;;;;;2.40;2.20;;;17.30;99.90;;;;;;4988997;28;20575;-64
2023/07/25 01:25:26;;;;;;;3.73;2.00;;;17.30;99.90;;;;;;4989096;28;20569;-63
2023/07/25 01:27:53;;;;;;;2.03;1.90;;;17.30;99.90;;;;;;4987822;28;20492;-64
2023/07/25 01:30:20;;;;;;;2.13;1.90;;;17.30;99.90;;;;;;4988672;28;20544;-65
2023/07/25 01:32:47;;;;;;;2.57;2.37;;;17.30;99.90;;;;;;4988762;28;20640;-64
2023/07/25 01:35:13;;;;;;;3.67;2.03;;;17.30;99.90;;;;;;4989081;28;20461;-64
2023/07/25 01:37:40;;;;;;;2.50;2.30;;;17.30;99.90;;;;;;4988336;28;20460;-64
2023/07/25 01:40:08;;;;;;;2.03;1.87;;;17.30;99.90;;;;;;4988904;28;20546;-64
2023/07/25 01:42:37;;;;;;;2.00;1.90;;;17.30;99.90;;;;;;4989015;28;20453;-64
2023/07/25 01:45:04;;;;;;;1.83;1.73;;;17.30;99.90;;;;;;4988849;28;20552;-64
2023/07/25 01:47:31;;;;;;;2.50;2.30;;;17.30;99.90;;;;;;4987813;28;20584;-64
2023/07/25 01:49:58;;;;;;;2.77;2.57;;;17.30;99.90;;;;;;4988577;28;20556;-64
2023/07/25 01:52:25;;;;;;;2.10;1.90;;;17.30;99.90;;;;;;4988604;28;20457;-65
2023/07/25 01:54:53;;;;;;;2.53;1.90;;;17.30;99.90;;;;;;4988651;28;20462;-64
2023/07/25 01:57:20;;;;;;;2.40;2.20;;;17.30;99.90;;;;;;4987912;28;20446;-64
2023/07/25 01:59:49;;;;;;;2.70;2.03;;;17.30;99.90;;;;;;4988598;28;20456;-64
2023/07/25 02:02:15;;;;;;;2.50;2.30;;;17.30;99.90;;;;;;4988308;28;20964;-64
2023/07/25 02:04:42;;;;;;;1.63;1.50;;;17.30;99.90;;;;;;4988395;28;20475;-64
2023/07/25 02:07:09;;;;;;;2.47;2.27;;;17.30;99.90;;;;;;4987815;28;20488;-64
2023/07/25 02:09:36;;;;;;;2.00;1.90;;;17.30;99.90;;;;;;4988890;28;20547;-63
2023/07/25 02:12:03;;;;;;;2.83;2.47;;;17.30;99.90;;;;;;4993820;28;20456;-64
2023/07/25 02:14:30;;;;;;;2.53;2.20;;;17.30;99.90;;;;;;4998462;28;20592;-64
2023/07/25 02:16:58;;;;;;;2.93;2.73;;;17.30;99.90;;;;;;4999256;28;20467;-64
2023/07/25 02:19:25;;;;;;;2.60;2.40;;;17.30;99.90;;;;;;5013875;28;20538;-65
2023/07/25 02:21:52;;;;;;;2.20;2.07;;;17.30;99.90;;;;;;5014327;28;20460;-64
2023/07/25 02:24:19;;;;;;;3.20;2.90;;;17.30;99.90;;;;;;5004624;28;20486;-64
2023/07/25 02:26:46;;;;;;;2.90;2.60;;;17.30;99.90;;;;;;5013045;28;20562;-64
2023/07/25 02:29:12;;;;;;;2.13;1.90;;;17.30;99.90;;;;;;5014580;28;20484;-64
2023/07/25 02:31:39;;;;;;;1.67;1.60;;;17.30;99.90;;;;;;5007245;28;20456;-64
2023/07/25 02:34:08;;;;;;;2.43;2.33;;;17.30;99.90;;;;;;5008225;28;20562;-65
2023/07/25 02:36:34;;;;;;;2.60;2.40;;;17.30;99.90;;;;;;5013817;28;20457;-64
2023/07/25 02:39:01;;;;;;;2.70;2.20;;;17.30;99.90;;;;;;5002274;28;20472;-65
2023/07/25 02:41:28;;;;;;;3.33;2.10;;;17.30;99.90;;;;;;5010821;28;20456;-64
2023/07/25 02:43:55;;;;;;;2.13;2.03;;;17.20;99.90;;;;;;5006834;28;20483;-64
2023/07/25 02:46:22;;;;;;;2.90;2.73;;;17.20;99.90;;;;;;5005402;28;20452;-65
2023/07/25 02:48:49;;;;;;;2.43;2.33;;;17.20;99.90;;;;;;5013039;28;20591;-64
2023/07/25 02:51:16;;;;;;;1.73;1.63;;;17.10;99.90;;;;;;5014202;28;20474;-64
2023/07/25 02:53:43;;;;;;;1.73;1.63;;;17.10;99.90;;;;;;5014370;28;20898;-64
2023/07/25 02:56:09;;;;;;;5.30;2.10;;;17.10;99.90;;;;;;5010899;28;20458;-64
2023/07/25 02:58:36;;;;;;;2.33;2.17;;;17.10;99.90;;;;;;5006105;28;20447;-64
2023/07/25 03:01:03;;;;;;;2.10;1.90;;;17.00;99.90;;;;;;5014498;28;21283;-64
2023/07/25 03:03:30;;;;;;;2.67;2.00;;;17.00;99.90;;;;;;5014196;28;20476;-66
2023/07/25 03:05:57;;;;;;;2.20;2.00;;;16.90;99.90;;;;;;5013420;28;20480;-64
2023/07/25 03:08:25;;;;;;;2.00;1.90;;;16.90;99.90;;;;;;5014222;28;20490;-64
2023/07/25 03:10:52;;;;;;;4.17;2.63;;;16.80;99.90;;;;;;5014175;28;20460;-64
2023/07/25 03:13:19;;;;;;;2.50;2.30;;;16.80;99.90;;;;;;5014123;28;20475;-64
2023/07/25 03:15:46;;;;;;;3.90;2.10;;;16.70;99.90;;;;;;5013839;28;20542;-64
2023/07/25 03:18:13;;;;;;;1.90;1.80;;;16.70;99.90;;;;;;5013383;28;20841;-64
2023/07/25 03:20:39;;;;;;;2.80;2.60;;;16.60;99.90;;;;;;5003724;28;20534;-64
2023/07/25 03:23:06;;;;;;;2.50;2.27;;;16.60;99.90;;;;;;5014140;28;20496;-64
2023/07/25 03:25:34;;;;;;;2.30;2.17;;;16.50;99.90;;;;;;5014248;28;20495;-65
2023/07/25 03:28:02;;;;;;;2.10;1.90;;;16.40;99.90;;;;;;5013419;28;20493;-64
2023/07/25 03:30:29;;;;;;;1.97;1.83;;;16.40;99.90;;;;;;5010637;28;20449;-65
2023/07/25 03:32:55;;;;;;;2.33;2.23;;;16.30;99.90;;;;;;5010776;28;20510;-64
2023/07/25 03:35:22;;;;;;;2.60;2.40;;;16.20;99.90;;;;;;5011065;28;20536;-64
2023/07/25 03:37:49;;;;;;;1.90;1.80;;;16.20;99.90;;;;;;5010092;28;20457;-65
2023/07/25 03:40:16;;;;;;;2.63;2.43;;;16.20;99.90;;;;;;5010690;28;20512;-64
2023/07/25 03:42:44;;;;;;;2.67;2.47;;;16.20;99.90;;;;;;5010579;28;20565;-64
2023/07/25 03:45:11;;;;;;;1.80;1.70;;;16.10;99.90;;;;;;5010483;28;20466;-64
2023/07/25 03:47:38;;;;;;;3.03;2.20;;;16.10;99.90;;;;;;5007868;28;20494;-64
2023/07/25 03:50:06;;;;;;;4.37;2.27;;;16.00;99.90;;;;;;5010398;28;20458;-64
2023/07/25 03:52:33;;;;;;;2.77;2.43;;;16.00;99.90;;;;;;5010486;28;20540;-64
2023/07/25 03:54:59;;;;;;;2.30;2.13;;;15.90;99.90;;;;;;5010720;28;20568;-65
2023/07/25 03:57:26;;;;;;;2.30;2.10;;;15.90;99.90;;;;;;5006362;28;20947;-64
2023/07/25 03:59:55;;;;;;;1.83;1.73;;;15.90;99.90;;;;;;5010237;28;20461;-64
2023/07/25 04:02:21;;;;;;;4.33;2.43;;;15.80;99.90;;;;;;5010261;28;20537;-64
2023/07/25 04:04:48;;;;;;;2.77;2.33;;;15.90;99.90;;;;;;5010200;28;21285;-63
2023/07/25 04:07:15;;;;;;;3.77;3.47;;;15.90;99.90;;;;;;5009334;28;20561;-64
2023/07/25 04:09:42;;;;;;;3.50;2.57;;;15.80;99.90;;;;;;5010175;28;20542;-64
2023/07/25 04:12:09;;;;;;;5.20;2.00;;;15.80;99.90;;;;;;5010013;28;20908;-64
2023/07/25 04:14:36;;;;;;;1.90;1.80;;;15.90;99.90;;;;;;5009733;28;20479;-64
2023/07/25 04:17:05;;;;;;;2.80;2.60;;;15.90;99.90;;;;;;5009314;28;20463;-64
2023/07/25 04:19:31;;;;;;;2.83;2.60;;;15.90;99.90;;;;;;5009865;28;20450;-64
2023/07/25 04:21:58;;;;;;;2.60;2.40;;;16.00;99.90;;;;;;5009894;28;20459;-64
2023/07/25 04:24:25;;;;;;;2.53;2.43;;;16.00;99.90;;;;;;5009812;28;20484;-64
2023/07/25 04:26:52;;;;;;;2.40;2.20;;;16.00;99.90;;;;;;5009151;28;20541;-64
2023/07/25 04:29:19;;;;;;;2.67;2.40;;;16.00;99.90;;;;;;5009732;28;20501;-64
2023/07/25 04:31:46;;;;;;;2.63;2.50;;;16.00;99.90;;;;;;5001666;28;20463;-63
2023/07/25 04:34:14;;;;;;;3.37;2.40;;;16.10;99.90;;;;;;5003842;28;20539;-64
2023/07/25 04:36:41;;;;;;;4.70;2.50;;;16.10;99.90;;;;;;5008836;28;20545;-64
2023/07/25 04:39:08;;;;;;;2.70;2.30;;;16.10;99.90;;;;;;5009394;28;20966;-63
2023/07/25 04:41:34;;;;;;;7.03;3.30;;;16.20;99.90;;;;;;5009362;28;20462;-64
2023/07/25 04:44:02;;;;;;;3.83;2.90;;;16.20;99.90;;;;;;5009352;28;20561;-64
2023/07/25 04:46:30;;;;;;;3.20;2.67;;;16.20;99.90;;;;;;5008808;28;20505;-64
2023/07/25 04:48:57;;;;;;;2.33;2.13;;;16.20;99.90;;;;;;5007759;28;20580;-64
2023/07/25 04:51:25;;;;;;;3.47;3.17;;;16.20;99.90;;;;;;5009158;28;20476;-64
2023/07/25 04:53:52;;;;;;;3.00;2.73;;;16.20;99.90;;;;;;5009399;28;20568;-64
2023/07/25 04:56:18;;;;;;;3.33;2.73;;;16.20;99.90;;;;;;5008587;28;20554;-64
2023/07/25 04:58:45;;;;;;;2.20;2.10;;;16.30;99.90;;;;;;5009390;28;21014;-64
2023/07/25 05:01:13;;;;;;;3.00;2.80;;;16.40;99.90;;;;;;5009185;28;21003;-64
2023/07/25 05:03:40;;;;;;;2.83;2.63;;;16.50;99.90;;;;;;5008938;28;20929;-65
2023/07/25 05:06:06;;;;;;;3.17;2.97;;;16.50;99.90;;;;;;5008259;28;20583;-64
2023/07/25 05:08:35;;;;;;;1.80;1.70;;;16.60;99.90;;;;;;5009095;28;20502;-64
2023/07/25 05:11:02;;;;;;;2.53;2.33;;;16.60;99.90;;;;;;5009124;28;20839;-64
2023/07/25 05:13:29;;;;;;;2.00;1.90;;;16.60;99.90;;;;;;5009004;28;20478;-63
2023/07/25 05:15:56;;;;;;;2.70;2.50;;;16.60;99.90;;;;;;5008537;28;21032;-64
2023/07/25 05:18:23;;;;;;;2.37;2.17;;;16.70;99.90;;;;;;5008674;28;20494;-64
2023/07/25 05:20:49;;;;;;;4.60;2.43;;;16.70;99.90;;;;;;5008700;28;21028;-64
2023/07/25 05:23:16;;;;;;;2.63;2.43;;;16.70;99.90;;;;;;5008898;28;21217;-64
2023/07/25 05:25:46;;;;;;;2.37;2.27;;;16.80;99.90;;;;;;5008707;28;20460;-64
2023/07/25 05:28:13;;;;;;;2.90;2.63;;;16.80;99.90;;;;;;5007935;28;20497;-64
2023/07/25 05:30:40;;;;;;;2.50;2.30;;;16.90;99.90;;;;;;5008600;28;20456;-64
2023/07/25 05:33:07;;;;;;;3.33;2.47;;;16.90;99.90;;;;;;5008471;28;20477;-64
2023/07/25 05:35:34;;;;;;;2.90;2.70;;;17.00;99.90;;;;;;5008718;28;20478;-64
2023/07/25 05:38:02;;;;;;;3.60;3.30;;;17.00;99.90;;;;;;5008218;28;20548;-63
2023/07/25 05:40:29;;;;;;;4.57;3.03;;;17.10;99.90;;;;;;5009122;28;20509;-64
2023/07/25 05:42:57;;;;;;;2.50;2.30;;;17.20;99.90;;;;;;5006654;28;20485;-64
2023/07/25 05:45:24;;;;;;;3.37;3.07;;;17.30;99.90;;;;;;5008403;28;20987;-64
2023/07/25 05:47:51;;;;;;;3.37;3.10;;;17.40;99.90;;;;;;5007880;28;20557;-64
2023/07/25 05:50:18;;;;;;;2.60;2.40;;;17.50;99.90;;;;;;5008266;28;20488;-64
2023/07/25 05:52:45;;;;;;;2.57;2.37;;;17.50;99.90;;;;;;5007532;28;20483;-64
2023/07/25 05:55:12;;;;;;;4.10;2.47;;;17.60;99.90;;;;;;5008278;28;20905;-63
2023/07/25 05:57:39;;;;;;;3.77;2.40;;;17.70;99.90;;;;;;5007605;28;20846;-64
2023/07/25 06:00:08;;;;;;;5.53;2.80;;;17.80;99.90;;;;;;5008188;28;20830;-64
2023/07/25 06:02:35;;;;;;;2.57;2.37;;;17.90;99.90;;;;;;4992651;28;21001;-65
2023/07/25 06:05:03;;;;;;;4.60;2.50;;;18.00;99.90;;;;;;4985253;28;20451;-64
2023/07/25 06:07:30;;;;;;;2.57;2.33;;;18.20;99.90;;;;;;4988016;28;20470;-64
2023/07/25 06:09:57;;;;;;;3.07;2.50;;;18.30;99.90;;;;;;4988194;28;20508;-64
2023/07/25 06:12:23;;;;;;;3.10;2.90;;;18.40;99.90;;;;;;4988196;28;20468;-64
2023/07/25 06:14:51;;;;;;;2.60;2.40;;;18.40;99.90;;;;;;4988156;28;20465;-63
2023/07/25 06:17:19;;;;;;;3.20;2.53;;;18.50;99.90;;;;;;4987712;28;20476;-64
2023/07/25 06:19:46;;;;;;;2.70;2.50;;;18.50;99.90;;;;;;4988523;28;20479;-64
2023/07/25 06:22:14;;;;;;;3.10;2.87;;;18.60;99.90;;;;;;4988235;28;20558;-64
2023/07/25 06:24:41;;;;;;;2.87;2.60;;;18.70;99.90;;;;;;4988067;28;20864;-64
2023/07/25 06:27:08;;;;;;;2.00;1.83;;;18.70;99.90;;;;;;4989181;28;20459;-64
2023/07/25 06:29:35;;;;;;;3.23;2.30;;;18.70;99.90;;;;;;5008148;28;20496;-64
2023/07/25 06:32:02;;;;;;;2.70;2.50;;;18.70;99.90;;;;;;5007863;28;20544;-64
2023/07/25 06:34:30;;;;;;;3.20;3.00;;;18.70;99.90;;;;;;5007533;28;20473;-64
2023/07/25 06:36:58;;;;;;;3.20;2.87;;;18.80;99.90;;;;;;5007039;28;21122;-64
2023/07/25 06:39:24;;;;;;;2.70;2.43;;;18.80;99.90;;;;;;5007784;28;20518;-65
2023/07/25 06:41:51;;;;;;;2.93;2.73;;;18.80;99.90;;;;;;5007691;28;20539;-64
2023/07/25 06:44:19;;;;;;;3.00;2.50;;;18.90;99.90;;;;;;5007742;28;20539;-64
2023/07/25 06:46:46;;;;;;;2.50;2.30;;;18.90;99.90;;;;;;5007152;28;20807;-64
2023/07/25 06:49:13;;;;;;;2.97;2.57;;;18.90;99.90;;;;;;5008001;28;20485;-64
2023/07/25 06:51:41;;;;;;;9.33;3.30;;;18.80;99.90;;;;;;5007996;28;20481;-64
2023/07/25 06:54:08;;;;;;;2.73;2.53;;;18.80;99.90;;;;;;5008032;28;20473;-64
2023/07/25 06:56:35;;;;;;;2.93;2.50;;;18.80;99.90;;;;;;5007459;28;20536;-64
2023/07/25 06:59:02;;;;;;;3.93;2.37;;;18.80;99.90;;;;;;5007697;28;20458;-64
2023/07/25 07:01:29;;;;;;;4.20;2.57;;;18.80;99.90;;;;;;5007870;28;20461;-64
2023/07/25 07:03:56;;;;;;;2.83;2.53;;;18.80;99.90;;;;;;5008198;28;20483;-64
2023/07/25 07:06:23;;;;;;;3.17;2.97;;;18.90;99.90;;;;;;5010501;28;20461;-65
2023/07/25 07:08:51;;;;;;;3.33;2.83;;;18.90;99.90;;;;;;5011274;28;20488;-64
2023/07/25 07:11:18;;;;;;;2.93;2.60;;;18.90;99.90;;;;;;5011261;28;20478;-64
2023/07/25 07:13:45;;;;;;;2.40;2.30;;;18.90;99.90;;;;;;5010944;28;20495;-65
2023/07/25 07:16:12;;;;;;;4.47;3.03;;;19.00;99.90;;;;;;5010725;28;20985;-64
2023/07/25 07:18:39;;;;;;;2.77;2.57;;;19.00;99.90;;;;;;5007828;28;20458;-64
2023/07/25 07:21:06;;;;;;;2.80;2.60;;;19.00;99.90;;;;;;4990743;28;21322;-64
2023/07/25 07:23:34;;;;;;;3.33;2.97;;;19.00;99.90;;;;;;4993752;28;20848;-64
2023/07/25 07:26:02;;;;;;;3.00;2.77;;;19.00;99.90;;;;;;4999814;28;20780;-65
2023/07/25 07:28:29;;;;;;;4.80;3.30;;;19.00;99.90;;;;;;4998613;28;20468;-64
2023/07/25 07:30:56;;;;;;;2.57;2.37;;;19.00;99.90;;;;;;4995756;28;20536;-64
2023/07/25 07:33:25;;;;;;;3.30;2.60;;;18.90;99.90;;;;;;4998599;28;20567;-65
2023/07/25 07:35:52;;;;;;;4.80;3.53;;;18.90;99.90;;;;;;4998763;28;20544;-64
2023/07/25 07:38:18;;;;;;;3.03;2.70;;;18.90;99.90;;;;;;4996334;28;20465;-64
2023/07/25 07:40:45;;;;;;;6.20;3.40;;;18.90;99.90;;;;;;4995972;28;20592;-65
2023/07/25 07:43:16;;;;;;;5.63;3.83;;;18.80;99.90;;;;;;4998358;28;20495;-65
2023/07/25 07:45:43;;;;;;;10.63;3.70;;;18.70;99.90;;;;;;5000170;28;20545;-66
2023/07/25 07:48:10;;;;;;;4.13;3.70;;;18.50;99.90;;;;;;5001285;28;20473;-66
2023/07/25 07:50:37;;;;;;;7.57;4.97;;;18.30;99.90;;;;;;5001099;28;20579;-65
2023/07/25 07:53:04;;;;;;;4.80;4.30;;;18.00;99.90;;;;;;4997487;28;20481;-65
2023/07/25 07:55:31;;;;;;;7.53;4.60;;;17.80;99.90;;;;;;4996124;28;20457;-65
2023/07/25 07:57:57;;;;;;;4.23;3.73;;;17.60;99.90;;;;;;5003153;28;20504;-65
2023/07/25 08:00:26;;;;;;;8.30;5.37;;;17.60;99.90;;;;;;4997136;28;20528;-65
2023/07/25 08:02:53;;;;;;;8.70;4.77;;;17.50;99.90;;;;;;5001591;28;20571;-65
2023/07/25 08:05:20;;;;;;;5.67;4.37;;;17.50;99.90;;;;;;4994682;28;20543;-64
2023/07/25 08:07:47;;;;;;;6.33;4.03;;;17.50;99.90;;;;;;4983760;28;20467;-65
2023/07/25 08:10:14;;;;;;;4.57;4.17;;;17.50;99.90;;;;;;4987562;28;20850;-64
2023/07/25 08:12:41;;;;;;;4.67;4.13;;;17.40;99.90;;;;;;4983987;28;20483;-64
2023/07/25 08:15:08;;;;;;;6.03;4.20;;;17.40;99.90;;;;;;4984805;28;20468;-65
2023/07/25 08:17:36;;;;;;;5.43;5.03;;;17.40;99.90;;;;;;4995955;28;20490;-65
2023/07/25 08:20:04;;;;;;;5.77;4.20;;;17.40;99.90;;;;;;4994859;28;20462;-64
2023/07/25 08:22:31;;;;;;;4.70;3.73;;;17.40;99.90;;;;;;4985835;28;20472;-64
2023/07/25 08:24:58;;;;;;;4.83;4.00;;;17.40;99.90;;;;;;4999619;28;20476;-65
2023/07/25 08:27:25;;;;;;;5.77;4.40;;;17.40;99.90;;;;;;4992854;28;20486;-65
2023/07/25 08:29:52;;;;;;;5.40;4.37;;;17.40;99.90;;;;;;5000225;28;21112;-65
2023/07/25 08:32:19;;;;;;;6.70;5.20;;;17.40;99.90;;;;;;4998039;28;20464;-65
2023/07/25 08:34:47;;;;;;;6.73;5.57;;;17.50;99.90;;;;;;5000402;28;20540;-65
2023/07/25 08:37:14;;;;;;;5.57;5.07;;;17.50;99.90;;;;;;5001312;28;20547;-65
2023/07/25 08:39:41;;;;;;;5.90;4.97;;;17.60;99.90;;;;;;5008041;28;21620;-65
2023/07/25 08:42:10;;;;;;;6.70;4.27;;;17.70;99.90;;;;;;5009665;28;20488;-65
2023/07/25 08:44:40;;;;;;;5.20;3.97;;;17.70;99.90;;;;;;5009798;28;20839;-65
2023/07/25 08:47:16;;;;;;;4.57;3.70;;;17.70;99.90;;;;;;5007504;28;20489;-65
2023/07/25 08:49:48;;;;;;;3.57;3.00;;;17.70;99.90;;;;;;5006176;28;20497;-64
2023/07/25 08:52:18;;;;;;;3.40;3.10;;;17.80;99.90;;;;;;4996762;28;20984;-64
2023/07/25 08:54:46;;;;;;;4.37;4.07;;;17.80;99.90;;;;;;4978964;28;20995;-65
2023/07/25 08:57:14;;;;;;;3.87;3.57;;;17.90;99.90;;;;;;4975406;28;20479;-64
2023/07/25 08:59:41;;;;;;;3.27;3.07;;;17.90;99.90;;;;;;4988015;28;20541;-64
2023/07/25 09:02:09;;;;;;;4.37;4.07;;;17.90;99.90;;;;;;4974413;28;21305;-64
2023/07/25 09:04:36;;;;;;;3.40;3.20;;;17.90;99.90;;;;;;4969538;28;20511;-64
2023/07/25 09:07:06;;;;;;;4.10;3.70;;;17.90;99.90;;;;;;4968732;28;20551;-64
2023/07/25 09:09:33;;;;;;;3.47;3.17;;;17.90;99.90;;;;;;4972844;28;21044;-64
2023/07/25 09:12:00;;;;;;;3.53;3.23;;;17.90;99.90;;;;;;4993628;28;20515;-64
2023/07/25 09:14:27;;;;;;;3.57;3.30;;;17.90;99.90;;;;;;5000380;28;20551;-65
2023/07/25 09:16:54;;;;;;;4.23;3.83;;;17.90;99.90;;;;;;4995479;28;20467;-64
2023/07/25 09:19:21;;;;;;;3.80;3.50;;;17.90;99.90;;;;;;4986517;28;21137;-65
2023/07/25 09:21:49;;;;;;;4.00;3.60;;;17.90;99.90;;;;;;4988928;28;20473;-65
2023/07/25 09:24:17;;;;;;;4.60;4.30;;;17.90;99.90;;;;;;4992333;28;21256;-65
2023/07/25 09:26:49;;;;;;;12.63;4.30;;;17.90;99.90;;;;;;5006860;28;20545;-65
2023/07/25 09:29:17;;;;;;;4.23;3.83;;;17.90;99.90;;;;;;4996965;28;20466;-65
2023/07/25 09:31:46;;;;;;;3.80;3.50;;;17.90;99.90;;;;;;4997888;28;21229;-64
2023/07/25 09:34:17;;;;;;;3.63;3.33;;;17.90;99.90;;;;;;5007487;28;20557;-65
2023/07/25 09:36:48;;;;;;;4.57;4.00;;;18.00;99.90;;;;;;4999143;28;20975;-65
2023/07/25 09:39:15;;;;;;;4.50;4.10;;;18.00;99.90;;;;;;4999154;28;20476;-65
2023/07/25 09:41:45;;;;;;;4.63;4.23;;;18.10;99.90;;;;;;5007931;28;20612;-65
2023/07/25 09:44:12;;;;;;;5.80;3.27;;;18.20;99.90;;;;;;5007503;28;20911;-65
2023/07/25 09:46:39;;;;;;;4.10;3.80;;;18.30;99.90;;;;;;5007056;28;20459;-65
2023/07/25 09:49:06;;;;;;;4.93;4.53;;;18.30;99.90;;;;;;5007059;28;20452;-65
2023/07/25 09:51:33;;;;;;;4.50;4.20;;;18.40;99.90;;;;;;5007296;28;21032;-65
2023/07/25 09:54:05;;;;;;;6.40;3.70;;;18.40;99.90;;;;;;5005348;28;21026;-64
2023/07/25 09:56:32;;;;;;;3.93;3.53;;;18.50;99.90;;;;;;5006834;28;20472;-65
2023/07/25 09:59:01;;;;;;;8.83;4.87;;;18.60;99.90;;;;;;5000927;28;20453;-65
2023/07/25 10:01:28;;;;;;;3.87;3.67;;;18.70;99.90;;;;;;5003711;28;20473;-64
2023/07/25 10:03:55;;;;;;;5.23;4.77;;;18.90;99.90;;;;;;5005755;28;20492;-65
2023/07/25 10:06:22;;;;;;;3.97;3.70;;;19.00;99.90;;;;;;4999128;28;20461;-65
2023/07/25 10:08:49;;;;;;;4.87;4.47;;;19.10;99.90;;;;;;4984798;28;20454;-66
2023/07/25 10:11:17;;;;;;;4.80;4.47;;;19.20;99.90;;;;;;4971675;28;20577;-65
2023/07/25 10:13:44;;;;;;;5.23;4.73;;;19.20;99.90;;;;;;4979220;28;20570;-65
2023/07/25 10:16:14;;;;;;;4.37;3.97;;;19.40;99.90;;;;;;4978136;28;20455;-65
2023/07/25 10:18:42;;;;;;;4.13;3.83;;;19.50;99.90;;;;;;4972781;28;20487;-64
2023/07/25 10:21:10;;;;;;;5.13;4.63;;;19.70;99.90;;;;;;4984248;28;20463;-64
2023/07/25 10:23:37;;;;;;;4.67;3.80;;;19.90;99.90;;;;;;4975303;28;20567;-64
2023/07/25 10:26:12;;;;;;;5.77;5.27;;;20.10;99.90;;;;;;4976427;28;21024;-65
2023/07/25 10:29:24;;;;;;;5.30;4.87;;;20.20;99.90;;;;;;4983237;28;20460;-64
2023/07/25 10:31:53;;;;;;;7.67;4.37;;;20.20;99.90;;;;;;4977686;28;20450;-65
2023/07/25 10:34:19;;;;;;;7.47;4.40;;;20.20;99.90;;;;;;4974830;28;20563;-66
2023/07/25 10:36:46;;;;;;;4.90;4.50;;;20.10;99.90;;;;;;4983777;28;20887;-65
2023/07/25 10:39:25;;;;;;;4.43;4.00;;;20.00;99.90;;;;;;4972889;28;20470;-66
2023/07/25 10:41:54;;;;;;;4.07;3.83;;;19.90;99.90;;;;;;4995038;28;20508;-65
2023/07/25 10:44:36;;;;;;;4.83;4.43;;;19.80;99.90;;;;;;5002343;28;20468;-65
2023/07/25 10:47:49;;;;;;;5.60;4.50;;;19.80;99.90;;;;;;4989683;28;21038;-66
2023/07/25 10:50:18;;;;;;;3.93;3.70;;;19.70;99.90;;;;;;4973840;28;20517;-65
2023/07/25 10:52:46;;;;;;;4.40;4.00;;;19.60;99.90;;;;;;4991123;28;20479;-65
2023/07/25 10:55:13;;;;;;;3.90;3.70;;;19.60;99.90;;;;;;4987553;28;20452;-65
2023/07/25 10:57:40;;;;;;;3.67;3.37;;;19.60;99.90;;;;;;4977644;28;20451;-65
2023/07/25 11:00:09;;;;;;;3.50;3.20;;;19.60;99.90;;;;;;4991215;28;20962;-65
2023/07/25 11:02:40;;;;;;;3.37;3.10;;;19.50;99.90;;;;;;4976722;28;20839;-66
2023/07/25 11:05:23;;;;;;;3.33;3.13;;;19.60;99.90;;;;;;4989043;28;20458;-65
2023/07/25 11:07:53;;;;;;;3.40;3.20;;;19.60;99.90;;;;;;4982300;28;20455;-65
2023/07/25 11:10:20;;;;;;;2.60;2.40;;;19.80;99.90;;;;;;4984307;28;20577;-65
2023/07/25 11:12:50;;;;;;;3.10;2.80;;;20.00;99.90;;;;;;4974680;28;20502;-65
2023/07/25 11:15:17;;;;;;;2.70;2.50;;;20.10;99.90;;;;;;4975156;28;20457;-65
2023/07/25 11:17:45;;;;;;;3.07;2.77;;;20.10;99.90;;;;;;4982386;28;20538;-64
2023/07/25 11:20:14;;;;;;;3.47;3.17;;;20.10;99.90;;;;;;4982613;28;20534;-65
2023/07/25 11:22:42;;;;;;;4.73;2.73;;;20.10;99.90;;;;;;4975299;28;20469;-64
2023/07/25 11:25:10;;;;;;;2.40;2.20;;;20.10;99.90;;;;;;4986980;28;20447;-64
2023/07/25 11:27:41;;;;;;;2.90;2.70;;;20.00;99.90;;;;;;4977266;28;20469;-65
2023/07/25 11:30:13;;;;;;;2.70;2.60;;;20.00;99.90;;;;;;4988796;28;21121;-64
2023/07/25 11:32:45;;;;;;;5.00;3.37;;;20.00;99.90;;;;;;5000409;28;21411;-65
2023/07/25 11:35:15;;;;;;;5.00;3.43;;;19.90;99.90;;;;;;4993519;28;20485;-64
2023/07/25 11:37:42;;;;;;;2.43;2.33;;;19.90;99.90;;;;;;4991961;28;20465;-64
2023/07/25 11:40:14;;;;;;;2.27;2.17;;;19.80;99.90;;;;;;5002064;28;20458;-64
2023/07/25 11:42:43;;;;;;;4.23;3.40;;;19.80;99.90;;;;;;4994517;28;20486;-65
2023/07/25 11:45:11;;;;;;;4.10;3.80;;;19.70;99.90;;;;;;4973709;28;20517;-65
2023/07/25 11:47:39;;;;;;;5.73;4.40;;;19.60;99.90;;;;;;4993076;28;20944;-66
2023/07/25 11:50:08;;;;;;;3.70;3.40;;;19.50;99.90;;;;;;4996235;28;20485;-67
2023/07/25 11:52:38;;;;;;;3.60;3.40;;;19.30;99.90;;;;;;4975339;28;20814;-67
2023/07/25 11:55:07;;;;;;;4.00;3.70;;;19.10;99.90;;;;;;4988998;28;20911;-67
2023/07/25 11:57:35;;;;;;;4.47;3.03;;;18.90;99.90;;;;;;4982734;28;20909;-66
2023/07/25 12:00:04;;;;;;;5.40;3.43;;;18.80;99.90;;;;;;4980705;28;20543;-66
2023/07/25 12:02:36;;;;;;;2.97;1.57;;;18.60;99.90;;;;;;4990134;28;20541;-66
2023/07/25 12:05:03;;;;;;;2.17;1.50;;;18.30;99.90;;;;;;4974295;28;20890;-66
2023/07/25 12:07:49;;;;;;;1.83;1.60;;;18.20;99.90;;;;;;4983756;28;20455;-66
2023/07/25 12:10:27;;;;;;;1.37;1.30;;;17.90;99.90;;;;;;4982626;28;20512;-66
2023/07/25 12:12:55;;;;;;;2.63;0.80;;;17.70;99.90;;;;;;4989303;28;20477;-65
2023/07/25 12:15:23;;;;;;;1.40;1.30;;;17.60;99.90;;;;;;4974720;28;20461;-66
2023/07/25 12:17:50;;;;;;;1.33;1.10;;;17.60;99.90;;;;;;5000021;28;21073;-66
2023/07/25 12:20:19;;;;;;;1.23;1.13;;;17.50;99.90;;;;;;4996411;28;21016;-65
2023/07/25 12:22:47;;;;;;;1.50;1.20;;;17.50;99.90;;;;;;4973750;28;20490;-65
2023/07/25 12:25:19;;;;;;;1.10;1.10;;;17.50;99.90;;;;;;4972624;28;20540;-65
2023/07/25 12:27:47;;;;;;;0.97;0.87;;;17.50;99.90;;;;;;4980697;28;20450;-66
2023/07/25 12:30:14;;;;;;;1.67;1.10;;;17.50;99.90;;;;;;4981757;28;20989;-65
2023/07/25 12:32:41;;;;;;;1.33;0.87;;;17.60;99.90;;;;;;4974350;28;20542;-65
2023/07/25 12:35:10;;;;;;;1.23;1.13;;;17.70;99.90;;;;;;4986157;28;20454;-65
2023/07/25 12:37:37;;;;;;;1.50;1.07;;;17.80;99.90;;;;;;4975714;28;20456;-65
2023/07/25 12:40:05;;;;;;;1.07;0.90;;;17.70;99.90;;;;;;4979039;28;20532;-65
2023/07/25 12:42:33;;;;;;;1.33;1.20;;;17.80;99.90;;;;;;4993627;28;20537;-64
2023/07/25 12:45:05;;;;;;;1.30;1.20;;;17.90;99.90;;;;;;4999882;28;20895;-65
2023/07/25 12:47:33;;;;;;;1.60;1.50;;;17.90;99.90;;;;;;4982420;28;20469;-65
2023/07/25 12:49:59;;;;;;;1.23;1.13;;;18.00;99.90;;;;;;4978960;28;20459;-64
2023/07/25 12:52:26;;;;;;;1.60;1.50;;;18.00;99.90;;;;;;4988678;28;20603;-65